Time;durP1;ratioP1;P1;durP2;ratioP2;P2;SDS_P1;SDS_P2;PMS_P1;PMS_P2;Temp;Humidity;BMP_temperature;BMP_pressure;BME280_temperature;BME280_humidity;BME280_pressure;Samples;Min_cycle;Max_cycle;Signal;HPM_P1;HPM_P2
2022/06/19 00:01:06;;;;;;;7.38;4.75;;;20.70;99.90;;;;;;5097191;28;20508;-64
2022/06/19 00:03:35;;;;;;;8.13;4.70;;;20.70;99.90;;;;;;5097062;28;20045;-64
2022/06/19 00:06:02;;;;;;;12.10;5.72;;;20.70;99.90;;;;;;5097071;28;20382;-65
2022/06/19 00:08:28;;;;;;;8.45;5.03;;;20.60;99.90;;;;;;5097065;28;20103;-64
2022/06/19 00:10:54;;;;;;;10.88;5.05;;;20.60;99.90;;;;;;5096807;28;20067;-65
2022/06/19 00:13:20;;;;;;;5.03;4.63;;;20.50;99.90;;;;;;5096701;28;20032;-64
2022/06/19 00:15:45;;;;;;;9.15;5.13;;;20.50;99.90;;;;;;5096947;28;20378;-64
2022/06/19 00:18:11;;;;;;;8.52;4.82;;;20.50;99.90;;;;;;5096696;28;20035;-64
2022/06/19 00:20:37;;;;;;;8.15;4.75;;;20.50;99.90;;;;;;5096813;28;20020;-64
2022/06/19 00:23:03;;;;;;;11.32;4.75;;;20.50;99.90;;;;;;5095393;28;20024;-64
2022/06/19 00:25:28;;;;;;;6.55;4.57;;;20.50;99.90;;;;;;5096633;28;20449;-64
2022/06/19 00:27:55;;;;;;;6.35;4.80;;;20.40;99.90;;;;;;5096454;28;20012;-64
2022/06/19 00:30:20;;;;;;;7.63;4.80;;;20.30;99.90;;;;;;5096587;28;20024;-64
2022/06/19 00:32:46;;;;;;;7.50;4.80;;;20.20;99.90;;;;;;5096376;28;20459;-64
2022/06/19 00:35:12;;;;;;;8.25;4.60;;;20.10;99.90;;;;;;5096256;28;20031;-64
2022/06/19 00:37:38;;;;;;;8.77;5.90;;;20.00;99.90;;;;;;5096506;28;20028;-64
2022/06/19 00:40:06;;;;;;;6.22;4.70;;;19.90;99.90;;;;;;5096473;28;20465;-64
2022/06/19 00:42:32;;;;;;;8.10;5.68;;;19.90;99.90;;;;;;5096144;28;20115;-65
2022/06/19 00:44:57;;;;;;;7.68;5.55;;;19.80;99.90;;;;;;5096296;28;20108;-64
2022/06/19 00:47:26;;;;;;;5.25;4.63;;;19.80;99.90;;;;;;5096082;28;20055;-64
2022/06/19 00:50:01;;;;;;;5.40;4.90;;;19.80;99.90;;;;;;5096241;28;20028;-64
2022/06/19 00:52:33;;;;;;;7.78;5.18;;;19.70;99.90;;;;;;5095947;28;20013;-64
2022/06/19 00:55:06;;;;;;;7.60;4.60;;;19.70;99.90;;;;;;5095958;28;20016;-64
2022/06/19 00:57:37;;;;;;;6.18;4.60;;;19.60;99.90;;;;;;5095697;28;20032;-64
2022/06/19 01:00:12;;;;;;;5.57;4.35;;;19.60;99.90;;;;;;5094546;28;20457;-64
2022/06/19 01:02:39;;;;;;;6.93;4.70;;;19.50;99.90;;;;;;5095762;28;20120;-64
2022/06/19 01:05:06;;;;;;;9.00;4.63;;;19.40;99.90;;;;;;5095891;28;20039;-64
2022/06/19 01:07:32;;;;;;;7.72;4.22;;;19.40;99.90;;;;;;5095645;28;20031;-64
2022/06/19 01:09:57;;;;;;;9.90;4.25;;;19.40;99.90;;;;;;5095867;28;20028;-64
2022/06/19 01:12:24;;;;;;;5.90;3.90;;;19.30;99.90;;;;;;5095921;28;20016;-64
2022/06/19 01:14:54;;;;;;;6.00;4.40;;;19.30;99.90;;;;;;5095571;28;20028;-64
2022/06/19 01:17:20;;;;;;;6.65;3.97;;;;;;;;;;5095506;28;20039;-64
2022/06/19 01:19:46;;;;;;;6.68;3.88;;;19.30;99.90;;;;;;5095742;28;20024;-64
2022/06/19 01:22:31;;;;;;;9.65;4.65;;;19.30;99.90;;;;;;5095490;28;20020;-64
2022/06/19 01:25:18;;;;;;;5.85;3.80;;;19.20;99.90;;;;;;5095091;28;20036;-64
2022/06/19 01:30:35;;;;;;;8.30;4.28;;;19.20;99.90;;;;;;5095076;28;20033;-64
2022/06/19 01:33:05;;;;;;;7.70;4.10;;;19.20;99.90;;;;;;5095170;28;20031;-64
2022/06/19 01:35:34;;;;;;;10.50;4.10;;;19.20;99.90;;;;;;5095172;28;20074;-64
2022/06/19 01:38:07;;;;;;;6.63;4.25;;;19.10;99.90;;;;;;5095112;28;20025;-64
2022/06/19 01:40:35;;;;;;;5.32;4.28;;;19.10;99.90;;;;;;5095313;28;20024;-64
2022/06/19 01:43:01;;;;;;;6.13;4.20;;;19.10;99.90;;;;;;5095218;28;20386;-64
2022/06/19 01:45:26;;;;;;;7.55;4.28;;;19.10;99.90;;;;;;5094932;28;20474;-64
2022/06/19 01:47:52;;;;;;;7.18;3.97;;;19.10;99.90;;;;;;5095143;28;20157;-64
2022/06/19 01:50:25;;;;;;;6.82;4.00;;;19.00;99.90;;;;;;5094885;28;20055;-64
2022/06/19 01:52:58;;;;;;;7.63;4.57;;;19.00;99.90;;;;;;5095072;28;20028;-64
2022/06/19 01:55:28;;;;;;;6.10;4.90;;;18.90;99.90;;;;;;5094914;28;20032;-64
2022/06/19 01:57:56;;;;;;;6.10;4.60;;;18.80;99.90;;;;;;5094958;28;20493;-64
2022/06/19 02:00:26;;;;;;;6.90;4.65;;;18.70;99.90;;;;;;5094694;28;20031;-64
2022/06/19 02:03:00;;;;;;;6.68;4.28;;;18.70;99.90;;;;;;5093493;28;20386;-64
2022/06/19 02:05:26;;;;;;;8.55;4.57;;;18.70;99.90;;;;;;5094524;28;20028;-64
2022/06/19 02:07:52;;;;;;;7.38;4.50;;;18.60;99.90;;;;;;5093719;28;20017;-66
2022/06/19 02:10:18;;;;;;;8.43;5.18;;;;;;;;;;5094440;28;20028;-65
2022/06/19 02:12:44;;;;;;;8.98;4.93;;;18.50;99.90;;;;;;5094806;28;20107;-64
2022/06/19 02:15:12;;;;;;;9.90;4.80;;;18.40;99.90;;;;;;5094391;28;20447;-64
2022/06/19 02:17:42;;;;;;;6.93;4.72;;;18.40;99.90;;;;;;5094597;28;20032;-64
2022/06/19 02:20:09;;;;;;;6.57;4.63;;;18.30;99.90;;;;;;5094304;28;20081;-64
2022/06/19 02:22:35;;;;;;;7.25;5.00;;;18.30;99.90;;;;;;5094216;28;20482;-64
2022/06/19 02:25:03;;;;;;;7.10;4.70;;;18.30;99.90;;;;;;5093957;28;20040;-64
2022/06/19 02:27:31;;;;;;;10.98;5.35;;;18.20;99.90;;;;;;5094410;28;20024;-64
2022/06/19 02:29:57;;;;;;;6.68;5.03;;;18.20;99.90;;;;;;5094133;28;20020;-64
2022/06/19 02:32:33;;;;;;;6.60;4.82;;;18.10;99.90;;;;;;5094020;28;20016;-64
2022/06/19 02:34:59;;;;;;;6.68;5.30;;;18.10;99.90;;;;;;5094004;28;20060;-64
2022/06/19 02:37:26;;;;;;;10.77;4.93;;;18.00;99.90;;;;;;5094047;28;20051;-64
2022/06/19 02:40:00;;;;;;;8.43;4.75;;;18.00;99.90;;;;;;5094156;28;20028;-64
2022/06/19 02:42:37;;;;;;;7.63;5.00;;;17.90;99.90;;;;;;5094149;28;20505;-64
2022/06/19 02:45:14;;;;;;;8.65;5.38;;;17.90;99.90;;;;;;5093786;28;20024;-64
2022/06/19 02:47:41;;;;;;;7.15;4.53;;;17.90;99.90;;;;;;5093792;28;20027;-64
2022/06/19 02:50:10;;;;;;;7.55;4.70;;;17.80;99.90;;;;;;5094006;28;20501;-64
2022/06/19 02:52:36;;;;;;;8.07;4.95;;;17.70;99.90;;;;;;5093974;28;20478;-64
2022/06/19 02:55:01;;;;;;;8.98;4.30;;;17.70;99.90;;;;;;5093928;28;20032;-64
2022/06/19 02:57:28;;;;;;;9.30;4.25;;;17.70;99.90;;;;;;5093903;28;20375;-64
2022/06/19 02:59:54;;;;;;;9.63;5.43;;;17.70;99.90;;;;;;5093810;28;20028;-64
2022/06/19 03:02:19;;;;;;;7.82;4.63;;;17.60;99.90;;;;;;5093820;28;20497;-64
2022/06/19 03:04:50;;;;;;;9.00;4.53;;;17.60;99.90;;;;;;5093734;28;20028;-63
2022/06/19 03:07:16;;;;;;;6.45;4.60;;;17.60;99.90;;;;;;5093767;28;20028;-64
2022/06/19 03:09:41;;;;;;;9.27;4.72;;;17.50;99.90;;;;;;5093453;28;20119;-64
2022/06/19 03:12:08;;;;;;;7.38;4.35;;;17.50;99.90;;;;;;5092529;28;20024;-64
2022/06/19 03:14:34;;;;;;;6.97;4.13;;;17.50;99.90;;;;;;5093639;28;20492;-63
2022/06/19 03:16:59;;;;;;;5.95;4.10;;;17.50;99.90;;;;;;5093613;28;20035;-63
2022/06/19 03:19:25;;;;;;;7.60;3.55;;;17.50;99.90;;;;;;5093429;28;20030;-64
2022/06/19 03:21:50;;;;;;;5.68;4.05;;;17.50;99.90;;;;;;5093388;28;20082;-63
2022/06/19 03:24:16;;;;;;;8.00;4.20;;;17.50;99.90;;;;;;5093138;28;20036;-64
2022/06/19 03:26:42;;;;;;;7.60;4.28;;;17.40;99.90;;;;;;5093523;28;20022;-63
2022/06/19 03:29:08;;;;;;;7.32;3.53;;;17.40;99.90;;;;;;5093289;28;20103;-64
2022/06/19 03:31:34;;;;;;;9.15;4.25;;;17.40;99.90;;;;;;5093244;28;20027;-64
2022/06/19 03:33:59;;;;;;;8.75;4.00;;;17.40;99.90;;;;;;5093457;28;20036;-63
2022/06/19 03:36:25;;;;;;;12.10;3.97;;;17.30;99.90;;;;;;5093337;28;20020;-63
2022/06/19 03:38:51;;;;;;;7.07;3.78;;;17.30;99.90;;;;;;5093422;28;20028;-63
2022/06/19 03:41:17;;;;;;;8.07;3.70;;;17.20;99.90;;;;;;5093243;28;20016;-63
2022/06/19 03:43:42;;;;;;;6.97;4.00;;;17.20;99.90;;;;;;5093074;28;20024;-64
2022/06/19 03:46:13;;;;;;;7.63;4.18;;;17.20;99.90;;;;;;5093147;28;20055;-63
2022/06/19 03:48:41;;;;;;;5.63;3.33;;;17.00;99.90;;;;;;5093361;28;20021;-64
2022/06/19 03:51:07;;;;;;;7.13;3.80;;;17.00;99.90;;;;;;5093085;28;20109;-64
2022/06/19 03:53:33;;;;;;;7.63;4.18;;;17.00;99.90;;;;;;5093199;28;20024;-64
2022/06/19 03:55:58;;;;;;;6.75;3.45;;;17.10;99.90;;;;;;5093252;28;20027;-64
2022/06/19 03:58:45;;;;;;;7.38;3.47;;;17.10;99.90;;;;;;5093236;28;20095;-65
2022/06/19 04:01:10;;;;;;;10.50;3.72;;;17.10;99.90;;;;;;5092832;28;20028;-64
2022/06/19 04:03:35;;;;;;;8.27;3.50;;;17.10;99.90;;;;;;5092977;28;20031;-64
2022/06/19 04:06:01;;;;;;;10.75;3.63;;;17.10;99.90;;;;;;5092946;28;20058;-64
2022/06/19 04:08:27;;;;;;;13.40;4.97;;;17.20;99.90;;;;;;5093128;28;20070;-64
2022/06/19 04:10:52;;;;;;;5.68;3.95;;;17.10;99.90;;;;;;5092925;28;20020;-64
2022/06/19 04:13:18;;;;;;;14.35;3.78;;;17.10;99.90;;;;;;5092972;28;20028;-64
2022/06/19 04:15:43;;;;;;;8.68;3.22;;;17.10;99.90;;;;;;5092724;28;20032;-64
2022/06/19 04:18:09;;;;;;;10.90;3.92;;;16.90;99.90;;;;;;5092783;28;20050;-66
2022/06/19 04:20:35;;;;;;;10.32;3.50;;;16.80;99.90;;;;;;5092731;28;20024;-66
2022/06/19 04:23:00;;;;;;;15.10;3.55;;;16.80;99.90;;;;;;5092746;28;20080;-64
2022/06/19 04:25:26;;;;;;;8.55;3.63;;;16.70;99.90;;;;;;5092991;28;20114;-64
2022/06/19 04:27:52;;;;;;;14.23;3.63;;;16.80;99.90;;;;;;5092977;28;20024;-64
2022/06/19 04:30:17;;;;;;;10.18;3.10;;;16.90;99.90;;;;;;5092972;28;20535;-64
2022/06/19 04:32:43;;;;;;;13.68;3.83;;;17.00;99.90;;;;;;5095481;28;20497;-64
2022/06/19 04:35:09;;;;;;;19.75;4.13;;;17.10;99.90;;;;;;5094956;28;20028;-64
2022/06/19 04:37:34;;;;;;;10.30;3.05;;;17.40;99.90;;;;;;5096559;28;20099;-64
2022/06/19 04:40:00;;;;;;;14.43;3.67;;;17.60;99.90;;;;;;5096497;28;20476;-64
2022/06/19 04:42:25;;;;;;;17.58;3.67;;;17.90;99.90;;;;;;5096452;28;20189;-64
2022/06/19 04:44:51;;;;;;;15.85;3.35;;;18.10;99.90;;;;;;5096223;28;20402;-64
2022/06/19 04:47:16;;;;;;;13.50;3.30;;;18.60;99.90;;;;;;5096124;28;20513;-64
2022/06/19 04:49:42;;;;;;;14.07;3.47;;;18.90;99.90;;;;;;5096067;28;20489;-64
2022/06/19 04:52:08;;;;;;;12.10;2.80;;;18.70;99.90;;;;;;5096267;28;20540;-64
2022/06/19 04:54:33;;;;;;;17.45;3.20;;;19.20;99.90;;;;;;5096143;28;20432;-64
2022/06/19 04:56:59;;;;;;;15.38;3.40;;;19.30;99.90;;;;;;5095981;28;20028;-64
2022/06/19 04:59:24;;;;;;;12.07;3.00;;;19.70;99.90;;;;;;5095946;28;20020;-64
2022/06/19 05:01:50;;;;;;;14.40;3.38;;;20.00;99.90;;;;;;5096049;28;20024;-64
2022/06/19 05:04:15;;;;;;;13.40;3.20;;;19.60;99.90;;;;;;5095760;28;20394;-64
2022/06/19 05:06:41;;;;;;;10.35;3.50;;;19.50;99.90;;;;;;5095714;28;20097;-64
2022/06/19 05:09:07;;;;;;;11.20;3.05;;;19.50;99.90;;;;;;5095943;28;20028;-64
2022/06/19 05:11:33;;;;;;;9.13;3.72;;;19.70;99.90;;;;;;5095670;28;20024;-64
2022/06/19 05:14:00;;;;;;;16.27;4.55;;;19.80;99.90;;;;;;5095740;28;20051;-63
2022/06/19 05:16:25;;;;;;;17.67;4.35;;;20.40;99.90;;;;;;5095537;28;20020;-64
2022/06/19 05:18:53;;;;;;;22.20;4.10;;;21.00;99.90;;;;;;5095776;28;20031;-64
2022/06/19 05:21:19;;;;;;;16.42;4.03;;;21.10;99.90;;;;;;5095740;28;20024;-64
2022/06/19 05:23:47;;;;;;;15.52;4.35;;;21.60;99.90;;;;;;5095321;28;20054;-64
2022/06/19 05:26:24;;;;;;;15.85;3.95;;;21.20;99.90;;;;;;5094471;28;20462;-64
2022/06/19 05:28:51;;;;;;;16.73;3.85;;;21.30;99.90;;;;;;5095567;28;20405;-64
2022/06/19 05:31:17;;;;;;;14.07;3.97;;;22.00;99.90;;;;;;5095228;28;20020;-64
2022/06/19 05:33:43;;;;;;;13.40;3.55;;;22.50;99.90;;;;;;5095375;28;20028;-64
2022/06/19 05:36:09;;;;;;;18.35;3.88;;;22.60;99.90;;;;;;5095362;28;20023;-64
2022/06/19 05:38:35;;;;;;;17.85;4.05;;;22.10;99.90;;;;;;5095328;28;20028;-64
2022/06/19 05:41:02;;;;;;;16.45;4.35;;;21.30;99.90;;;;;;5093756;28;20435;-64
2022/06/19 05:43:30;;;;;;;11.45;3.63;;;21.40;99.90;;;;;;5095239;28;20032;-64
2022/06/19 05:45:58;;;;;;;14.43;3.45;;;22.10;99.90;;;;;;5095212;28;20031;-64
2022/06/19 05:48:25;;;;;;;14.63;3.80;;;22.80;99.90;;;;;;5094906;28;20039;-64
2022/06/19 05:51:11;;;;;;;12.95;3.80;;;22.90;99.90;;;;;;5093664;28;20474;-64
2022/06/19 05:53:40;;;;;;;11.57;3.97;;;23.50;99.40;;;;;;5095005;28;20034;-64
2022/06/19 05:56:07;;;;;;;14.57;4.00;;;23.30;99.10;;;;;;5094785;28;20109;-64
2022/06/19 05:58:33;;;;;;;12.95;3.65;;;23.50;98.60;;;;;;5094610;28;20024;-64
2022/06/19 06:00:59;;;;;;;12.25;3.40;;;23.30;98.10;;;;;;5093392;28;20055;-64
2022/06/19 06:03:25;;;;;;;14.55;3.35;;;23.70;97.00;;;;;;5094751;28;20048;-64
2022/06/19 06:05:50;;;;;;;13.63;3.63;;;23.10;96.90;;;;;;5093609;28;20378;-64
2022/06/19 06:08:18;;;;;;;10.18;3.45;;;23.30;97.70;;;;;;5094841;28;20024;-64
2022/06/19 06:10:44;;;;;;;11.32;3.92;;;23.50;96.70;;;;;;5094442;28;20089;-64
2022/06/19 06:13:09;;;;;;;12.13;2.72;;;23.30;96.60;;;;;;5094701;28;20443;-64
2022/06/19 06:15:35;;;;;;;13.65;3.55;;;24.00;96.00;;;;;;5094344;28;20501;-64
2022/06/19 06:18:02;;;;;;;12.10;3.33;;;23.90;95.10;;;;;;5094574;28;20048;-64
2022/06/19 06:20:29;;;;;;;13.07;3.70;;;24.20;94.70;;;;;;5094585;28;20431;-64
2022/06/19 06:22:55;;;;;;;9.32;3.75;;;23.60;94.00;;;;;;5094284;28;20106;-64
2022/06/19 06:25:20;;;;;;;14.05;3.92;;;23.80;93.90;;;;;;5094016;28;20129;-64
2022/06/19 06:27:46;;;;;;;15.82;3.65;;;23.70;94.00;;;;;;5094287;28;20047;-64
2022/06/19 06:30:12;;;;;;;14.38;3.90;;;23.50;94.40;;;;;;5094073;28;20074;-64
2022/06/19 06:32:38;;;;;;;11.77;3.42;;;23.60;93.80;;;;;;5094125;28;20028;-64
2022/06/19 06:35:04;;;;;;;10.48;3.35;;;24.50;93.60;;;;;;5094222;28;20016;-64
2022/06/19 06:37:30;;;;;;;13.75;3.58;;;24.80;92.20;;;;;;5094218;28;20028;-64
2022/06/19 06:39:56;;;;;;;15.07;4.20;;;24.90;92.00;;;;;;5094214;28;20046;-64
2022/06/19 06:42:21;;;;;;;13.55;3.33;;;25.80;90.70;;;;;;5093977;28;20028;-64
2022/06/19 06:44:47;;;;;;;14.13;3.75;;;25.60;90.90;;;;;;5094145;28;20060;-64
2022/06/19 06:47:13;;;;;;;14.23;3.75;;;25.80;90.00;;;;;;5094049;28;20022;-64
2022/06/19 06:49:38;;;;;;;14.43;3.50;;;26.30;88.30;;;;;;5094056;28;20463;-65
2022/06/19 06:52:08;;;;;;;13.07;3.30;;;26.60;88.90;;;;;;5093779;28;20022;-65
2022/06/19 06:54:36;;;;;;;16.58;3.50;;;27.10;85.70;;;;;;5093186;28;20498;-65
2022/06/19 06:57:02;;;;;;;13.32;3.35;;;26.20;84.70;;;;;;5093947;28;20478;-64
2022/06/19 06:59:28;;;;;;;13.02;3.35;;;26.60;85.60;;;;;;5093662;28;20107;-65
2022/06/19 07:01:53;;;;;;;13.00;3.30;;;25.80;85.00;;;;;;5092320;28;20030;-64
2022/06/19 07:04:19;;;;;;;12.45;3.35;;;25.80;86.30;;;;;;5093707;28;20035;-64
2022/06/19 07:06:44;;;;;;;13.68;3.45;;;26.20;85.00;;;;;;5093502;28;20115;-64
2022/06/19 07:09:10;;;;;;;10.57;3.10;;;26.50;85.00;;;;;;5093529;28;20470;-64
2022/06/19 07:11:38;;;;;;;11.63;3.53;;;25.60;86.10;;;;;;5093737;28;20028;-64
2022/06/19 07:14:04;;;;;;;11.45;3.30;;;26.30;86.20;;;;;;5093393;28;20028;-64
2022/06/19 07:16:29;;;;;;;20.13;3.60;;;26.30;84.20;;;;;;5093177;28;20524;-65
2022/06/19 07:18:55;;;;;;;13.02;3.38;;;26.40;82.90;;;;;;5093603;28;20073;-65
2022/06/19 07:21:21;;;;;;;11.63;3.38;;;26.60;83.30;;;;;;5093584;28;20035;-65
2022/06/19 07:23:47;;;;;;;11.18;3.22;;;26.40;82.80;;;;;;5093312;28;20494;-65
2022/06/19 07:26:15;;;;;;;13.70;3.35;;;26.40;84.60;;;;;;5093560;28;20485;-65
2022/06/19 07:28:41;;;;;;;13.25;3.33;;;26.20;81.70;;;;;;5093266;28;20111;-65
2022/06/19 07:31:07;;;;;;;9.32;3.30;;;26.90;82.40;;;;;;5093272;28;20482;-65
2022/06/19 07:33:34;;;;;;;10.70;3.28;;;26.90;81.10;;;;;;5093443;28;20021;-65
2022/06/19 07:36:00;;;;;;;11.60;3.80;;;27.50;81.80;;;;;;5093385;28;20508;-65
2022/06/19 07:38:25;;;;;;;12.65;3.75;;;27.10;77.60;;;;;;5093276;28;20012;-66
2022/06/19 07:40:51;;;;;;;10.90;3.60;;;27.10;79.60;;;;;;5093165;28;20024;-66
2022/06/19 07:43:16;;;;;;;11.70;3.50;;;27.00;79.70;;;;;;5093604;28;20028;-65
2022/06/19 07:45:42;;;;;;;9.80;3.45;;;28.10;78.60;;;;;;5093036;28;20434;-65
2022/06/19 07:50:56;;;;;;;9.23;2.95;;;29.60;72.40;;;;;;5092905;28;20032;-65
2022/06/19 07:53:21;;;;;;;11.13;3.30;;;29.90;71.10;;;;;;5093306;28;20050;-64
2022/06/19 07:55:47;;;;;;;10.98;3.50;;;29.60;71.90;;;;;;5093130;28;20078;-64
2022/06/19 07:58:13;;;;;;;12.23;3.45;;;28.70;72.40;;;;;;5092917;28;20498;-64
2022/06/19 08:00:39;;;;;;;13.68;3.53;;;27.70;76.00;;;;;;5093220;28;20085;-64
2022/06/19 08:03:05;;;;;;;11.80;3.28;;;27.30;76.00;;;;;;5093174;28;20107;-64
2022/06/19 08:05:34;;;;;;;9.43;3.60;;;26.70;78.00;;;;;;5092902;28;20022;-64
2022/06/19 08:08:02;;;;;;;10.80;3.50;;;26.70;77.80;;;;;;5096292;28;20031;-64
2022/06/19 08:10:32;;;;;;;17.38;4.55;;;27.00;78.70;;;;;;5097064;28;20060;-64
2022/06/19 08:12:58;;;;;;;10.10;2.95;;;26.40;77.90;;;;;;5097058;28;20397;-64
2022/06/19 08:15:24;;;;;;;16.25;4.03;;;25.80;82.40;;;;;;5096896;28;20097;-64
2022/06/19 08:17:50;;;;;;;11.95;3.50;;;26.50;80.70;;;;;;5096935;28;20027;-64
2022/06/19 08:20:18;;;;;;;12.23;3.97;;;25.60;83.40;;;;;;5096892;28;20026;-64
2022/06/19 08:22:44;;;;;;;12.10;3.17;;;25.50;83.70;;;;;;5096822;28;20035;-64
2022/06/19 08:25:12;;;;;;;14.15;3.75;;;25.40;85.30;;;;;;5096438;28;20052;-64
2022/06/19 08:27:41;;;;;;;11.93;4.18;;;25.90;82.90;;;;;;5096490;28;20024;-64
2022/06/19 08:30:11;;;;;;;17.38;4.22;;;26.30;82.80;;;;;;5096663;28;20462;-64
2022/06/19 08:32:37;;;;;;;12.15;3.40;;;26.20;82.20;;;;;;5095233;28;20028;-64
2022/06/19 08:35:03;;;;;;;11.98;4.10;;;27.00;81.10;;;;;;5096509;28;20099;-64
2022/06/19 08:37:29;;;;;;;13.00;3.92;;;27.10;79.20;;;;;;5096402;28;20020;-64
2022/06/19 08:39:55;;;;;;;13.95;4.00;;;25.40;81.90;;;;;;5096529;28;20027;-64
2022/06/19 08:42:50;;;;;;;14.52;3.90;;;24.60;85.80;;;;;;5096454;28;20028;-64
2022/06/19 08:45:33;;;;;;;12.85;3.53;;;24.30;88.40;;;;;;5096063;28;20059;-64
2022/06/19 08:50:57;;;;;;;11.35;3.92;;;25.60;87.50;;;;;;5111104;27;20381;-65
2022/06/19 08:53:53;;;;;;;14.45;4.00;;;26.80;82.90;;;;;;5110086;28;20093;-63
2022/06/19 08:56:29;;;;;;;18.20;4.03;;;26.60;82.20;;;;;;5110952;28;20032;-66
2022/06/19 08:59:16;;;;;;;8.88;3.03;;;26.50;83.10;;;;;;5111064;28;20448;-66
2022/06/19 09:02:09;;;;;;;13.57;3.58;;;26.50;84.60;;;;;;5109766;28;20032;-65
2022/06/19 09:07:51;;;;;;;17.75;4.07;;;26.30;85.10;;;;;;5111240;27;20133;-64
2022/06/19 09:10:44;;;;;;;12.00;3.47;;;25.20;89.40;;;;;;5110916;28;20024;-65
2022/06/19 09:13:43;;;;;;;11.73;3.17;;;25.00;89.30;;;;;;5111124;28;20103;-65
2022/06/19 09:16:35;;;;;;;12.23;3.80;;;25.60;88.70;;;;;;5111124;28;20500;-65
2022/06/19 09:19:25;;;;;;;15.10;3.78;;;25.80;87.40;;;;;;5110696;28;20485;-65
2022/06/19 09:22:12;;;;;;;13.98;3.17;;;25.70;86.70;;;;;;5110699;28;20493;-65
2022/06/19 09:25:17;;;;;;;12.63;3.65;;;25.80;84.80;;;;;;5110849;28;20042;-65
2022/06/19 09:27:54;;;;;;;10.93;3.60;;;26.00;85.30;;;;;;5110528;28;20027;-65
2022/06/19 09:30:29;;;;;;;14.63;3.25;;;26.90;83.80;;;;;;5110917;28;20032;-65
2022/06/19 09:33:02;;;;;;;11.43;3.30;;;27.30;82.80;;;;;;5110690;28;20139;-66
2022/06/19 09:35:43;;;;;;;11.68;3.30;;;26.60;83.60;;;;;;5110739;28;20027;-66
2022/06/19 09:38:20;;;;;;;13.68;3.50;;;26.60;83.40;;;;;;5110671;28;20050;-66
2022/06/19 09:40:50;;;;;;;10.93;3.25;;;26.90;82.30;;;;;;5110648;28;20027;-66
2022/06/19 09:43:39;;;;;;;12.07;3.03;;;26.80;83.00;;;;;;5110305;28;20024;-66
2022/06/19 09:46:25;;;;;;;11.75;3.17;;;26.90;81.30;;;;;;5108961;28;20024;-66
2022/06/19 09:48:59;;;;;;;10.95;3.25;;;28.00;82.50;;;;;;5110543;28;20031;-66
2022/06/19 09:51:33;;;;;;;13.60;2.97;;;27.80;79.50;;;;;;5110212;28;20065;-66
2022/06/19 09:54:10;;;;;;;11.98;3.30;;;27.90;79.70;;;;;;5110389;28;20099;-66
2022/06/19 09:57:16;;;;;;;12.18;3.42;;;26.70;83.50;;;;;;5110374;28;20477;-66
2022/06/19 10:00:03;;;;;;;14.80;3.97;;;26.30;83.40;;;;;;5109940;28;20375;-66
2022/06/19 10:02:42;;;;;;;10.27;3.70;;;26.70;84.70;;;;;;5110287;28;20389;-66
2022/06/19 10:05:20;;;;;;;11.43;3.00;;;26.40;83.10;;;;;;5109893;28;20506;-66
2022/06/19 10:07:53;;;;;;;11.70;3.83;;;26.90;82.30;;;;;;5110213;28;20432;-66
2022/06/19 10:10:40;;;;;;;;;;;27.10;83.00;;;;;;5110637;28;20465;-66
2022/06/19 10:13:13;;;;;;;12.82;3.33;;;26.80;81.60;;;;;;5109854;28;20322;-66
2022/06/19 10:15:41;;;;;;;12.02;3.25;;;27.10;81.90;;;;;;5110101;28;20510;-66
2022/06/19 10:18:19;;;;;;;11.63;3.05;;;26.90;83.00;;;;;;5097539;28;20028;-66
2022/06/19 10:20:52;;;;;;;8.75;3.17;;;26.70;83.70;;;;;;5096108;28;20020;-66
2022/06/19 10:23:48;;;;;;;9.35;3.22;;;26.40;83.40;;;;;;5096310;28;20024;-66
2022/06/19 10:26:41;;;;;;;11.35;3.45;;;25.90;83.40;;;;;;5095912;28;20063;-66
2022/06/19 10:29:35;;;;;;;15.17;4.33;;;25.30;85.70;;;;;;5095999;28;20505;-66
2022/06/19 10:32:27;;;;;;;12.60;3.88;;;24.80;87.90;;;;;;5095859;28;20466;-66
2022/06/19 10:35:02;;;;;;;12.88;3.80;;;24.80;88.10;;;;;;5096128;28;20078;-66
2022/06/19 10:37:56;;;;;;;16.10;4.10;;;24.60;88.50;;;;;;5095740;28;20028;-66
2022/06/19 10:40:51;;;;;;;12.48;3.35;;;24.60;90.10;;;;;;5095735;28;20112;-66
2022/06/19 10:43:44;;;;;;;11.10;3.30;;;24.80;90.50;;;;;;5095663;28;20024;-66
2022/06/19 10:46:14;;;;;;;13.43;3.72;;;24.50;90.00;;;;;;5095496;28;20040;-66
2022/06/19 10:51:48;;;;;;;14.18;3.90;;;24.10;91.60;;;;;;5070706;28;20346;-66
2022/06/19 10:57:15;;;;;;;16.67;4.05;;;24.10;91.90;;;;;;5090762;28;20662;-66
2022/06/19 10:59:40;;;;;;;12.70;3.47;;;24.10;92.10;;;;;;5090952;28;20032;-66
2022/06/19 11:05:23;;;;;;;11.65;3.70;;;24.50;91.70;;;;;;5089443;28;20028;-66
2022/06/19 11:07:48;;;;;;;13.57;3.60;;;24.10;91.80;;;;;;5090499;28;20025;-66
2022/06/19 11:10:22;;;;;;;12.05;4.00;;;23.60;93.50;;;;;;5090751;28;20462;-66
2022/06/19 11:12:56;;;;;;;10.75;3.20;;;23.20;94.80;;;;;;5090710;28;20485;-66
2022/06/19 11:18:22;;;;;;;12.60;3.78;;;23.30;96.70;;;;;;5113854;27;1186708;-66
2022/06/19 11:21:06;;;;;;;14.18;3.88;;;23.60;97.80;;;;;;5130568;28;20046;-66
2022/06/19 11:23:51;;;;;;;11.02;3.58;;;23.80;94.80;;;;;;5131789;27;20027;-66
2022/06/19 11:26:21;;;;;;;11.93;3.80;;;24.10;95.30;;;;;;5131698;27;20019;-66
2022/06/19 11:32:09;;;;;;;13.35;3.10;;;24.40;93.60;;;;;;5070702;28;20353;-66
2022/06/19 11:34:44;;;;;;;13.15;3.85;;;25.00;94.40;;;;;;5070815;28;20075;-66
2022/06/19 11:37:18;;;;;;;13.35;3.33;;;25.20;92.90;;;;;;5070670;28;20119;-67
2022/06/19 11:40:06;;;;;;;13.32;3.67;;;25.40;92.00;;;;;;5070362;28;20029;-66
2022/06/19 11:42:36;;;;;;;17.58;3.60;;;25.40;92.40;;;;;;5070249;28;20094;-67
2022/06/19 11:53:35;;;;;;;15.07;3.70;;;25.90;92.30;;;;;;5111256;27;20412;-66
2022/06/19 11:56:23;;;;;;;18.02;3.63;;;26.40;92.00;;;;;;5111030;28;20490;-66
2022/06/19 11:58:56;;;;;;;14.13;3.90;;;26.10;92.20;;;;;;5110744;28;20028;-66
2022/06/19 12:01:33;;;;;;;16.02;3.25;;;25.70;92.20;;;;;;5110822;28;20020;-66
2022/06/19 12:04:01;;;;;;;12.05;3.50;;;25.90;93.00;;;;;;5110833;28;20047;-66
2022/06/19 12:06:50;;;;;;;10.10;3.38;;;25.80;91.90;;;;;;5110964;28;20103;-66
2022/06/19 12:09:38;;;;;;;12.00;3.58;;;26.20;92.00;;;;;;5110403;28;20501;-67
2022/06/19 12:12:13;;;;;;;11.23;3.38;;;26.70;91.70;;;;;;5110708;28;20485;-67
2022/06/19 12:14:58;;;;;;;15.07;3.63;;;26.50;90.60;;;;;;5110567;28;20020;-67
2022/06/19 12:23:10;;;;;;;14.48;3.45;;;26.20;91.10;;;;;;5090690;28;20300;-66
2022/06/19 12:25:44;;;;;;;12.52;3.38;;;26.30;91.00;;;;;;5090448;28;20060;-66
2022/06/19 12:28:32;;;;;;;12.48;3.42;;;26.40;91.00;;;;;;5090652;28;20385;-66
2022/06/19 12:31:19;;;;;;;13.55;3.83;;;26.40;91.60;;;;;;5090361;28;20026;-66
2022/06/19 12:34:09;;;;;;;9.32;3.38;;;26.60;92.50;;;;;;5090450;28;20445;-66
2022/06/19 12:36:36;;;;;;;12.65;3.80;;;26.60;90.50;;;;;;5090394;28;20440;-66
2022/06/19 12:39:05;;;;;;;9.93;3.35;;;26.90;91.50;;;;;;5090711;28;20028;-66
2022/06/19 12:45:02;;;;;;;13.68;3.95;;;26.40;91.30;;;;;;5090822;28;20443;-67
2022/06/19 12:47:40;;;;;;;9.00;3.15;;;26.30;93.10;;;;;;5090958;28;20509;-67
2022/06/19 12:50:46;;;;;;;14.88;3.65;;;26.30;91.50;;;;;;5090625;28;20021;-66
2022/06/19 12:53:38;;;;;;;9.30;3.75;;;26.20;92.30;;;;;;5090483;28;20017;-67
2022/06/19 12:56:44;;;;;;;12.30;3.30;;;26.50;92.10;;;;;;5090540;28;20047;-67
2022/06/19 13:02:33;;;;;;;13.43;3.42;;;26.30;92.00;;;;;;5090721;27;20134;-66
2022/06/19 13:05:25;;;;;;;16.05;3.40;;;26.30;92.80;;;;;;5090944;28;20111;-66
2022/06/19 13:08:05;;;;;;;12.75;3.40;;;26.20;91.70;;;;;;5090549;28;20017;-66
2022/06/19 13:10:57;;;;;;;11.25;3.55;;;26.10;92.70;;;;;;5090603;28;20032;-66
2022/06/19 13:16:30;;;;;;;12.90;3.60;;;26.60;92.60;;;;;;5152472;27;20304;-66
2022/06/19 13:19:09;;;;;;;10.57;3.20;;;27.00;92.30;;;;;;5131673;28;20027;-66
2022/06/19 13:21:46;;;;;;;11.93;3.80;;;27.10;91.00;;;;;;5131866;28;20030;-66
2022/06/19 13:24:39;;;;;;;14.02;3.72;;;26.70;91.90;;;;;;5131685;28;20035;-66
2022/06/19 13:27:21;;;;;;;15.30;3.40;;;26.60;91.60;;;;;;5131318;28;20030;-66
2022/06/19 13:30:00;;;;;;;8.85;2.83;;;26.50;92.50;;;;;;5131362;28;20035;-66
2022/06/19 13:33:05;;;;;;;14.45;3.60;;;26.30;92.90;;;;;;5112983;28;20110;-66
2022/06/19 13:35:53;;;;;;;11.50;3.60;;;25.90;93.30;;;;;;5131080;28;20094;-66
2022/06/19 13:38:46;;;;;;;14.10;3.83;;;25.80;93.40;;;;;;5131413;28;20050;-66
2022/06/19 13:41:27;;;;;;;12.20;3.25;;;25.80;92.80;;;;;;5131105;28;20027;-66
2022/06/19 13:44:24;;;;;;;13.20;3.47;;;25.60;92.90;;;;;;5131333;28;20081;-66
2022/06/19 13:47:12;;;;;;;13.77;3.78;;;25.70;93.20;;;;;;5131268;28;20405;-66
2022/06/19 13:50:02;;;;;;;12.20;3.53;;;25.60;94.00;;;;;;5131247;28;20023;-66
2022/06/19 13:53:07;;;;;;;13.70;3.88;;;25.00;94.20;;;;;;5130876;28;20106;-66
2022/06/19 13:55:43;;;;;;;10.88;3.40;;;25.10;94.20;;;;;;5130559;28;20024;-66